sensor_id;sensor_type;location;lat;lon;timestamp;P1;durP1;ratioP1;P2;durP2;ratioP2
16308;SDS011;8263;48.880;9.276;2022-07-01T00:02:03;1.73;;;0.85;;
16308;SDS011;8263;48.880;9.276;2022-07-01T00:04:31;2.47;;;1.00;;
16308;SDS011;8263;48.880;9.276;2022-07-01T00:06:58;7.50;;;0.90;;
16308;SDS011;8263;48.880;9.276;2022-07-01T00:09:25;1.20;;;0.77;;
16308;SDS011;8263;48.880;9.276;2022-07-01T00:11:52;0.70;;;0.70;;
16308;SDS011;8263;48.880;9.276;2022-07-01T00:14:20;2.55;;;0.70;;
16308;SDS011;8263;48.880;9.276;2022-07-01T00:16:48;0.60;;;0.60;;
16308;SDS011;8263;48.880;9.276;2022-07-01T00:19:14;0.65;;;0.60;;
16308;SDS011;8263;48.880;9.276;2022-07-01T00:21:42;3.05;;;0.90;;
16308;SDS011;8263;48.880;9.276;2022-07-01T00:24:09;1.77;;;0.80;;
16308;SDS011;8263;48.880;9.276;2022-07-01T00:26:35;1.42;;;0.70;;
16308;SDS011;8263;48.880;9.276;2022-07-01T00:29:02;2.20;;;1.00;;
16308;SDS011;8263;48.880;9.276;2022-07-01T00:31:29;4.93;;;1.17;;
16308;SDS011;8263;48.880;9.276;2022-07-01T00:33:56;0.65;;;0.63;;
16308;SDS011;8263;48.880;9.276;2022-07-01T00:36:22;2.10;;;0.73;;
16308;SDS011;8263;48.880;9.276;2022-07-01T00:38:51;2.50;;;0.75;;
16308;SDS011;8263;48.880;9.276;2022-07-01T00:41:17;0.88;;;0.60;;
16308;SDS011;8263;48.880;9.276;2022-07-01T00:43:44;4.47;;;1.10;;
16308;SDS011;8263;48.880;9.276;2022-07-01T00:46:11;1.20;;;0.70;;
16308;SDS011;8263;48.880;9.276;2022-07-01T00:48:38;1.08;;;0.77;;
16308;SDS011;8263;48.880;9.276;2022-07-01T00:51:04;0.63;;;0.63;;
16308;SDS011;8263;48.880;9.276;2022-07-01T00:53:31;0.70;;;0.70;;
16308;SDS011;8263;48.880;9.276;2022-07-01T00:55:59;0.75;;;0.70;;
16308;SDS011;8263;48.880;9.276;2022-07-01T00:58:26;8.07;;;0.93;;
16308;SDS011;8263;48.880;9.276;2022-07-01T01:00:53;0.55;;;0.55;;
16308;SDS011;8263;48.880;9.276;2022-07-01T01:03:20;2.35;;;0.82;;
16308;SDS011;8263;48.880;9.276;2022-07-01T01:05:47;0.60;;;0.60;;
16308;SDS011;8263;48.880;9.276;2022-07-01T01:08:15;0.50;;;0.50;;
16308;SDS011;8263;48.880;9.276;2022-07-01T01:10:42;0.73;;;0.70;;
16308;SDS011;8263;48.880;9.276;2022-07-01T01:13:10;2.25;;;0.60;;
16308;SDS011;8263;48.880;9.276;2022-07-01T01:15:37;0.60;;;0.60;;
16308;SDS011;8263;48.880;9.276;2022-07-01T01:18:04;1.75;;;0.70;;
16308;SDS011;8263;48.880;9.276;2022-07-01T01:20:33;0.80;;;0.80;;
16308;SDS011;8263;48.880;9.276;2022-07-01T01:23:00;1.15;;;0.70;;
16308;SDS011;8263;48.880;9.276;2022-07-01T01:25:27;2.35;;;0.70;;
16308;SDS011;8263;48.880;9.276;2022-07-01T01:27:53;0.50;;;0.50;;
16308;SDS011;8263;48.880;9.276;2022-07-01T01:30:20;2.63;;;0.85;;
16308;SDS011;8263;48.880;9.276;2022-07-01T01:32:47;0.55;;;0.50;;
16308;SDS011;8263;48.880;9.276;2022-07-01T01:35:15;1.45;;;0.70;;
16308;SDS011;8263;48.880;9.276;2022-07-01T01:37:43;1.05;;;0.77;;
16308;SDS011;8263;48.880;9.276;2022-07-01T01:40:11;0.90;;;0.60;;
16308;SDS011;8263;48.880;9.276;2022-07-01T01:42:39;0.50;;;0.50;;
16308;SDS011;8263;48.880;9.276;2022-07-01T01:45:06;1.00;;;0.50;;
16308;SDS011;8263;48.880;9.276;2022-07-01T01:47:33;1.55;;;0.60;;
16308;SDS011;8263;48.880;9.276;2022-07-01T01:49:59;0.90;;;0.60;;
16308;SDS011;8263;48.880;9.276;2022-07-01T01:52:26;0.60;;;0.60;;
16308;SDS011;8263;48.880;9.276;2022-07-01T01:54:57;0.50;;;0.50;;
16308;SDS011;8263;48.880;9.276;2022-07-01T01:57:23;0.50;;;0.50;;
16308;SDS011;8263;48.880;9.276;2022-07-01T01:59:50;0.57;;;0.57;;
16308;SDS011;8263;48.880;9.276;2022-07-01T02:02:17;1.35;;;0.57;;
16308;SDS011;8263;48.880;9.276;2022-07-01T02:04:44;0.90;;;0.50;;
16308;SDS011;8263;48.880;9.276;2022-07-01T02:07:10;0.70;;;0.65;;
16308;SDS011;8263;48.880;9.276;2022-07-01T02:09:36;0.60;;;0.60;;
16308;SDS011;8263;48.880;9.276;2022-07-01T02:12:05;0.50;;;0.50;;
16308;SDS011;8263;48.880;9.276;2022-07-01T02:14:31;1.33;;;0.68;;
16308;SDS011;8263;48.880;9.276;2022-07-01T02:16:58;2.97;;;0.60;;
16308;SDS011;8263;48.880;9.276;2022-07-01T02:19:24;1.20;;;0.73;;
16308;SDS011;8263;48.880;9.276;2022-07-01T02:21:51;0.40;;;0.40;;
16308;SDS011;8263;48.880;9.276;2022-07-01T02:24:18;0.75;;;0.60;;
16308;SDS011;8263;48.880;9.276;2022-07-01T02:26:45;0.90;;;0.60;;
16308;SDS011;8263;48.880;9.276;2022-07-01T02:29:13;0.52;;;0.52;;
16308;SDS011;8263;48.880;9.276;2022-07-01T02:31:40;0.63;;;0.63;;
16308;SDS011;8263;48.880;9.276;2022-07-01T02:34:06;0.60;;;0.60;;
16308;SDS011;8263;48.880;9.276;2022-07-01T02:36:33;1.23;;;1.02;;
16308;SDS011;8263;48.880;9.276;2022-07-01T02:38:59;1.08;;;0.60;;
16308;SDS011;8263;48.880;9.276;2022-07-01T02:41:26;2.10;;;0.85;;
16308;SDS011;8263;48.880;9.276;2022-07-01T02:43:53;0.77;;;0.73;;
16308;SDS011;8263;48.880;9.276;2022-07-01T02:46:21;0.75;;;0.75;;
16308;SDS011;8263;48.880;9.276;2022-07-01T02:48:49;0.80;;;0.80;;
16308;SDS011;8263;48.880;9.276;2022-07-01T02:51:16;0.65;;;0.65;;
16308;SDS011;8263;48.880;9.276;2022-07-01T02:53:42;0.52;;;0.52;;
16308;SDS011;8263;48.880;9.276;2022-07-01T02:56:09;0.80;;;0.80;;
16308;SDS011;8263;48.880;9.276;2022-07-01T02:58:35;4.50;;;0.90;;
16308;SDS011;8263;48.880;9.276;2022-07-01T03:01:02;2.05;;;0.73;;
16308;SDS011;8263;48.880;9.276;2022-07-01T03:03:30;0.70;;;0.70;;
16308;SDS011;8263;48.880;9.276;2022-07-01T03:05:56;0.90;;;0.70;;
16308;SDS011;8263;48.880;9.276;2022-07-01T03:08:23;1.52;;;0.75;;
16308;SDS011;8263;48.880;9.276;2022-07-01T03:10:49;0.70;;;0.70;;
16308;SDS011;8263;48.880;9.276;2022-07-01T03:13:16;0.68;;;0.68;;
16308;SDS011;8263;48.880;9.276;2022-07-01T03:15:44;0.90;;;0.80;;
16308;SDS011;8263;48.880;9.276;2022-07-01T03:18:11;3.90;;;0.80;;
16308;SDS011;8263;48.880;9.276;2022-07-01T03:20:39;1.73;;;0.80;;
16308;SDS011;8263;48.880;9.276;2022-07-01T03:23:05;1.45;;;0.70;;
16308;SDS011;8263;48.880;9.276;2022-07-01T03:25:32;0.57;;;0.57;;
16308;SDS011;8263;48.880;9.276;2022-07-01T03:28:01;1.00;;;0.82;;
16308;SDS011;8263;48.880;9.276;2022-07-01T03:30:28;1.52;;;0.70;;
16308;SDS011;8263;48.880;9.276;2022-07-01T03:32:55;0.90;;;0.90;;
16308;SDS011;8263;48.880;9.276;2022-07-01T03:35:21;0.70;;;0.70;;
16308;SDS011;8263;48.880;9.276;2022-07-01T03:38:06;0.52;;;0.52;;
16308;SDS011;8263;48.880;9.276;2022-07-01T03:40:32;1.08;;;0.98;;
16308;SDS011;8263;48.880;9.276;2022-07-01T03:42:59;0.80;;;0.65;;
16308;SDS011;8263;48.880;9.276;2022-07-01T03:45:26;0.73;;;0.70;;
16308;SDS011;8263;48.880;9.276;2022-07-01T03:47:53;1.23;;;0.80;;
16308;SDS011;8263;48.880;9.276;2022-07-01T03:50:20;0.90;;;0.80;;
16308;SDS011;8263;48.880;9.276;2022-07-01T03:52:47;1.10;;;0.70;;
16308;SDS011;8263;48.880;9.276;2022-07-01T03:55:15;0.73;;;0.68;;
16308;SDS011;8263;48.880;9.276;2022-07-01T03:57:41;0.93;;;0.82;;
16308;SDS011;8263;48.880;9.276;2022-07-01T04:00:08;1.58;;;1.00;;
16308;SDS011;8263;48.880;9.276;2022-07-01T04:02:35;0.82;;;0.82;;
16308;SDS011;8263;48.880;9.276;2022-07-01T04:05:01;1.23;;;0.82;;
16308;SDS011;8263;48.880;9.276;2022-07-01T04:07:28;0.77;;;0.70;;
16308;SDS011;8263;48.880;9.276;2022-07-01T04:09:55;0.88;;;0.77;;
16308;SDS011;8263;48.880;9.276;2022-07-01T04:12:23;0.75;;;0.75;;
16308;SDS011;8263;48.880;9.276;2022-07-01T04:14:49;0.75;;;0.75;;
16308;SDS011;8263;48.880;9.276;2022-07-01T04:17:16;0.80;;;0.80;;
16308;SDS011;8263;48.880;9.276;2022-07-01T04:19:43;0.82;;;0.80;;
16308;SDS011;8263;48.880;9.276;2022-07-01T04:22:09;1.08;;;0.98;;
16308;SDS011;8263;48.880;9.276;2022-07-01T04:24:53;1.15;;;1.05;;
16308;SDS011;8263;48.880;9.276;2022-07-01T04:27:20;2.97;;;1.30;;
16308;SDS011;8263;48.880;9.276;2022-07-01T04:29:49;2.55;;;1.10;;
16308;SDS011;8263;48.880;9.276;2022-07-01T04:32:15;1.27;;;1.17;;
16308;SDS011;8263;48.880;9.276;2022-07-01T04:34:42;1.58;;;0.90;;
16308;SDS011;8263;48.880;9.276;2022-07-01T04:37:09;2.88;;;1.08;;
16308;SDS011;8263;48.880;9.276;2022-07-01T04:39:37;1.33;;;0.98;;
16308;SDS011;8263;48.880;9.276;2022-07-01T04:42:03;1.02;;;0.90;;
16308;SDS011;8263;48.880;9.276;2022-07-01T04:44:31;2.80;;;1.15;;
16308;SDS011;8263;48.880;9.276;2022-07-01T04:47:00;0.90;;;0.90;;
16308;SDS011;8263;48.880;9.276;2022-07-01T04:49:27;2.97;;;1.20;;
16308;SDS011;8263;48.880;9.276;2022-07-01T04:51:54;2.30;;;1.25;;
16308;SDS011;8263;48.880;9.276;2022-07-01T04:54:25;2.13;;;1.20;;
16308;SDS011;8263;48.880;9.276;2022-07-01T04:56:52;1.30;;;0.98;;
16308;SDS011;8263;48.880;9.276;2022-07-01T04:59:22;1.20;;;1.00;;
16308;SDS011;8263;48.880;9.276;2022-07-01T05:01:49;1.70;;;1.10;;
16308;SDS011;8263;48.880;9.276;2022-07-01T05:04:17;1.30;;;1.20;;
16308;SDS011;8263;48.880;9.276;2022-07-01T05:06:44;2.42;;;1.10;;
16308;SDS011;8263;48.880;9.276;2022-07-01T05:09:12;1.63;;;1.00;;
16308;SDS011;8263;48.880;9.276;2022-07-01T05:11:39;2.05;;;1.27;;
16308;SDS011;8263;48.880;9.276;2022-07-01T05:14:06;1.63;;;1.20;;
16308;SDS011;8263;48.880;9.276;2022-07-01T05:16:33;1.67;;;1.20;;
16308;SDS011;8263;48.880;9.276;2022-07-01T05:19:00;1.50;;;1.10;;
16308;SDS011;8263;48.880;9.276;2022-07-01T05:21:45;1.27;;;1.17;;
16308;SDS011;8263;48.880;9.276;2022-07-01T05:24:25;1.30;;;1.15;;
16308;SDS011;8263;48.880;9.276;2022-07-01T05:26:53;1.20;;;1.02;;
16308;SDS011;8263;48.880;9.276;2022-07-01T05:29:20;1.73;;;1.20;;
16308;SDS011;8263;48.880;9.276;2022-07-01T05:31:47;1.30;;;1.20;;
16308;SDS011;8263;48.880;9.276;2022-07-01T05:34:13;1.35;;;1.23;;
16308;SDS011;8263;48.880;9.276;2022-07-01T05:36:40;2.17;;;1.10;;
16308;SDS011;8263;48.880;9.276;2022-07-01T05:39:08;1.50;;;1.40;;
16308;SDS011;8263;48.880;9.276;2022-07-01T05:41:34;3.50;;;1.50;;
16308;SDS011;8263;48.880;9.276;2022-07-01T05:44:01;1.75;;;1.27;;
16308;SDS011;8263;48.880;9.276;2022-07-01T05:46:28;1.48;;;1.27;;
16308;SDS011;8263;48.880;9.276;2022-07-01T05:48:55;1.17;;;1.02;;
16308;SDS011;8263;48.880;9.276;2022-07-01T05:51:21;1.38;;;1.20;;
16308;SDS011;8263;48.880;9.276;2022-07-01T05:53:48;3.83;;;1.15;;
16308;SDS011;8263;48.880;9.276;2022-07-01T05:56:16;1.83;;;1.15;;
16308;SDS011;8263;48.880;9.276;2022-07-01T05:58:42;1.33;;;1.23;;
16308;SDS011;8263;48.880;9.276;2022-07-01T06:01:09;2.00;;;1.50;;
16308;SDS011;8263;48.880;9.276;2022-07-01T06:03:36;1.35;;;1.25;;
16308;SDS011;8263;48.880;9.276;2022-07-01T06:06:03;1.40;;;1.30;;
16308;SDS011;8263;48.880;9.276;2022-07-01T06:08:29;1.38;;;1.27;;
16308;SDS011;8263;48.880;9.276;2022-07-01T06:10:56;1.48;;;1.38;;
16308;SDS011;8263;48.880;9.276;2022-07-01T06:13:24;3.15;;;1.40;;
16308;SDS011;8263;48.880;9.276;2022-07-01T06:15:51;4.60;;;1.33;;
16308;SDS011;8263;48.880;9.276;2022-07-01T06:18:18;4.00;;;1.30;;
16308;SDS011;8263;48.880;9.276;2022-07-01T06:20:45;1.30;;;1.20;;
16308;SDS011;8263;48.880;9.276;2022-07-01T06:23:11;2.85;;;1.42;;
16308;SDS011;8263;48.880;9.276;2022-07-01T06:25:38;1.67;;;1.13;;
16308;SDS011;8263;48.880;9.276;2022-07-01T06:28:04;1.10;;;1.00;;
16308;SDS011;8263;48.880;9.276;2022-07-01T06:30:32;2.35;;;1.30;;
16308;SDS011;8263;48.880;9.276;2022-07-01T06:32:59;3.97;;;1.92;;
16308;SDS011;8263;48.880;9.276;2022-07-01T06:35:25;2.00;;;1.70;;
16308;SDS011;8263;48.880;9.276;2022-07-01T06:37:52;2.88;;;2.00;;
16308;SDS011;8263;48.880;9.276;2022-07-01T06:40:19;2.17;;;1.83;;
16308;SDS011;8263;48.880;9.276;2022-07-01T06:42:45;1.85;;;1.15;;
16308;SDS011;8263;48.880;9.276;2022-07-01T06:45:12;1.10;;;1.00;;
16308;SDS011;8263;48.880;9.276;2022-07-01T06:47:40;1.23;;;1.13;;
16308;SDS011;8263;48.880;9.276;2022-07-01T06:50:07;1.05;;;0.95;;
16308;SDS011;8263;48.880;9.276;2022-07-01T06:52:34;3.75;;;0.90;;
16308;SDS011;8263;48.880;9.276;2022-07-01T06:55:01;0.98;;;0.90;;
16308;SDS011;8263;48.880;9.276;2022-07-01T06:57:27;1.20;;;1.08;;
16308;SDS011;8263;48.880;9.276;2022-07-01T06:59:54;1.73;;;1.00;;
16308;SDS011;8263;48.880;9.276;2022-07-01T07:02:20;1.95;;;1.13;;
16308;SDS011;8263;48.880;9.276;2022-07-01T07:04:48;2.80;;;1.10;;
16308;SDS011;8263;48.880;9.276;2022-07-01T07:07:15;0.85;;;0.85;;
16308;SDS011;8263;48.880;9.276;2022-07-01T07:09:42;1.50;;;1.02;;
16308;SDS011;8263;48.880;9.276;2022-07-01T07:12:09;1.30;;;1.10;;
16308;SDS011;8263;48.880;9.276;2022-07-01T07:14:35;1.10;;;0.95;;
16308;SDS011;8263;48.880;9.276;2022-07-01T07:17:02;1.98;;;1.10;;
16308;SDS011;8263;48.880;9.276;2022-07-01T07:19:29;3.00;;;0.80;;
16308;SDS011;8263;48.880;9.276;2022-07-01T07:21:57;1.10;;;1.00;;
16308;SDS011;8263;48.880;9.276;2022-07-01T07:24:24;1.60;;;0.90;;
16308;SDS011;8263;48.880;9.276;2022-07-01T07:26:50;1.10;;;1.00;;
16308;SDS011;8263;48.880;9.276;2022-07-01T07:29:17;0.93;;;0.90;;
16308;SDS011;8263;48.880;9.276;2022-07-01T07:31:44;0.85;;;0.70;;
16308;SDS011;8263;48.880;9.276;2022-07-01T07:34:10;0.80;;;0.80;;
16308;SDS011;8263;48.880;9.276;2022-07-01T07:36:38;1.17;;;0.90;;
16308;SDS011;8263;48.880;9.276;2022-07-01T07:39:07;2.05;;;1.00;;
16308;SDS011;8263;48.880;9.276;2022-07-01T07:41:33;1.00;;;0.90;;
16308;SDS011;8263;48.880;9.276;2022-07-01T07:44:00;1.10;;;1.00;;
16308;SDS011;8263;48.880;9.276;2022-07-01T07:46:26;1.80;;;0.90;;
16308;SDS011;8263;48.880;9.276;2022-07-01T07:48:53;2.40;;;1.52;;
16308;SDS011;8263;48.880;9.276;2022-07-01T07:51:20;1.67;;;1.17;;
16308;SDS011;8263;48.880;9.276;2022-07-01T07:53:48;2.45;;;1.02;;
16308;SDS011;8263;48.880;9.276;2022-07-01T07:56:16;2.42;;;1.10;;
16308;SDS011;8263;48.880;9.276;2022-07-01T07:58:42;1.17;;;1.08;;
16308;SDS011;8263;48.880;9.276;2022-07-01T08:01:10;1.73;;;1.10;;
16308;SDS011;8263;48.880;9.276;2022-07-01T08:03:37;2.95;;;1.25;;
16308;SDS011;8263;48.880;9.276;2022-07-01T08:06:03;0.90;;;0.90;;
16308;SDS011;8263;48.880;9.276;2022-07-01T08:08:30;1.63;;;1.30;;
16308;SDS011;8263;48.880;9.276;2022-07-01T08:10:58;1.30;;;1.00;;
16308;SDS011;8263;48.880;9.276;2022-07-01T08:13:27;1.33;;;1.23;;
16308;SDS011;8263;48.880;9.276;2022-07-01T08:15:53;1.38;;;1.25;;
16308;SDS011;8263;48.880;9.276;2022-07-01T08:18:21;1.40;;;1.30;;
16308;SDS011;8263;48.880;9.276;2022-07-01T08:20:47;1.75;;;1.42;;
16308;SDS011;8263;48.880;9.276;2022-07-01T08:23:17;1.20;;;1.10;;
16308;SDS011;8263;48.880;9.276;2022-07-01T08:25:44;1.33;;;1.10;;
16308;SDS011;8263;48.880;9.276;2022-07-01T08:28:10;1.45;;;1.13;;
16308;SDS011;8263;48.880;9.276;2022-07-01T08:30:38;2.53;;;1.40;;
16308;SDS011;8263;48.880;9.276;2022-07-01T08:33:05;1.38;;;1.20;;
16308;SDS011;8263;48.880;9.276;2022-07-01T08:35:31;2.90;;;1.35;;
16308;SDS011;8263;48.880;9.276;2022-07-01T08:37:58;1.83;;;1.48;;
16308;SDS011;8263;48.880;9.276;2022-07-01T08:40:25;2.03;;;1.50;;
16308;SDS011;8263;48.880;9.276;2022-07-01T08:42:54;3.13;;;1.60;;
16308;SDS011;8263;48.880;9.276;2022-07-01T08:45:20;1.88;;;1.48;;
16308;SDS011;8263;48.880;9.276;2022-07-01T08:47:52;3.22;;;1.75;;
16308;SDS011;8263;48.880;9.276;2022-07-01T08:50:20;2.10;;;1.63;;
16308;SDS011;8263;48.880;9.276;2022-07-01T08:52:47;3.08;;;1.50;;
16308;SDS011;8263;48.880;9.276;2022-07-01T08:55:13;4.82;;;1.33;;
16308;SDS011;8263;48.880;9.276;2022-07-01T08:57:40;7.70;;;2.50;;
16308;SDS011;8263;48.880;9.276;2022-07-01T09:00:07;2.75;;;1.60;;
16308;SDS011;8263;48.880;9.276;2022-07-01T09:02:52;1.75;;;1.30;;
16308;SDS011;8263;48.880;9.276;2022-07-01T09:05:19;1.83;;;1.65;;
16308;SDS011;8263;48.880;9.276;2022-07-01T09:07:46;2.17;;;1.50;;
16308;SDS011;8263;48.880;9.276;2022-07-01T09:10:13;1.55;;;1.45;;
16308;SDS011;8263;48.880;9.276;2022-07-01T09:12:42;3.40;;;1.50;;
16308;SDS011;8263;48.880;9.276;2022-07-01T09:15:19;2.05;;;1.73;;
16308;SDS011;8263;48.880;9.276;2022-07-01T09:17:46;2.70;;;1.50;;
16308;SDS011;8263;48.880;9.276;2022-07-01T09:20:24;2.28;;;1.60;;
16308;SDS011;8263;48.880;9.276;2022-07-01T09:23:01;3.03;;;1.55;;
16308;SDS011;8263;48.880;9.276;2022-07-01T09:25:29;2.25;;;1.67;;
16308;SDS011;8263;48.880;9.276;2022-07-01T09:28:02;1.77;;;1.40;;
16308;SDS011;8263;48.880;9.276;2022-07-01T09:30:30;1.65;;;1.38;;
16308;SDS011;8263;48.880;9.276;2022-07-01T09:33:04;3.63;;;1.75;;
16308;SDS011;8263;48.880;9.276;2022-07-01T09:35:33;1.95;;;1.45;;
16308;SDS011;8263;48.880;9.276;2022-07-01T09:38:00;1.92;;;1.60;;
16308;SDS011;8263;48.880;9.276;2022-07-01T09:40:28;1.67;;;1.58;;
16308;SDS011;8263;48.880;9.276;2022-07-01T09:43:13;4.05;;;2.20;;
16308;SDS011;8263;48.880;9.276;2022-07-01T09:45:48;2.70;;;1.88;;
16308;SDS011;8263;48.880;9.276;2022-07-01T09:48:14;2.38;;;1.73;;
16308;SDS011;8263;48.880;9.276;2022-07-01T09:50:42;2.30;;;1.70;;
16308;SDS011;8263;48.880;9.276;2022-07-01T09:53:09;2.10;;;1.30;;
16308;SDS011;8263;48.880;9.276;2022-07-01T09:55:37;1.35;;;1.25;;
16308;SDS011;8263;48.880;9.276;2022-07-01T09:58:20;1.58;;;1.48;;
16308;SDS011;8263;48.880;9.276;2022-07-01T10:00:47;1.77;;;1.40;;
16308;SDS011;8263;48.880;9.276;2022-07-01T10:03:14;1.88;;;1.25;;
16308;SDS011;8263;48.880;9.276;2022-07-01T10:05:42;1.52;;;1.20;;
16308;SDS011;8263;48.880;9.276;2022-07-01T10:10:56;1.55;;;1.30;;
16308;SDS011;8263;48.880;9.276;2022-07-01T10:13:26;1.95;;;1.20;;
16308;SDS011;8263;48.880;9.276;2022-07-01T10:15:53;2.22;;;1.20;;
16308;SDS011;8263;48.880;9.276;2022-07-01T10:18:22;2.85;;;1.30;;
16308;SDS011;8263;48.880;9.276;2022-07-01T10:20:49;1.92;;;1.33;;
16308;SDS011;8263;48.880;9.276;2022-07-01T10:23:16;3.20;;;1.55;;
16308;SDS011;8263;48.880;9.276;2022-07-01T10:25:45;2.58;;;1.50;;
16308;SDS011;8263;48.880;9.276;2022-07-01T10:28:19;2.20;;;1.40;;
16308;SDS011;8263;48.880;9.276;2022-07-01T10:31:04;2.13;;;1.50;;
16308;SDS011;8263;48.880;9.276;2022-07-01T10:36:16;3.05;;;1.80;;
16308;SDS011;8263;48.880;9.276;2022-07-01T10:41:25;3.35;;;1.60;;
16308;SDS011;8263;48.880;9.276;2022-07-01T10:43:53;3.90;;;1.75;;
16308;SDS011;8263;48.880;9.276;2022-07-01T10:49:16;2.35;;;1.55;;
16308;SDS011;8263;48.880;9.276;2022-07-01T10:51:45;2.60;;;1.40;;
16308;SDS011;8263;48.880;9.276;2022-07-01T10:54:12;3.97;;;1.50;;
16308;SDS011;8263;48.880;9.276;2022-07-01T10:56:39;2.38;;;1.58;;
16308;SDS011;8263;48.880;9.276;2022-07-01T10:59:06;1.50;;;1.40;;
16308;SDS011;8263;48.880;9.276;2022-07-01T11:01:33;1.38;;;1.20;;
16308;SDS011;8263;48.880;9.276;2022-07-01T11:03:59;2.53;;;1.45;;
16308;SDS011;8263;48.880;9.276;2022-07-01T11:06:29;1.35;;;1.20;;
16308;SDS011;8263;48.880;9.276;2022-07-01T11:09:01;2.00;;;1.13;;
16308;SDS011;8263;48.880;9.276;2022-07-01T11:11:28;2.00;;;1.45;;
16308;SDS011;8263;48.880;9.276;2022-07-01T11:13:56;2.47;;;1.30;;
16308;SDS011;8263;48.880;9.276;2022-07-01T11:16:22;2.75;;;1.20;;
16308;SDS011;8263;48.880;9.276;2022-07-01T11:18:49;1.40;;;1.15;;
16308;SDS011;8263;48.880;9.276;2022-07-01T11:21:16;3.10;;;1.20;;
16308;SDS011;8263;48.880;9.276;2022-07-01T11:23:53;1.92;;;1.10;;
16308;SDS011;8263;48.880;9.276;2022-07-01T11:26:23;1.38;;;1.17;;
16308;SDS011;8263;48.880;9.276;2022-07-01T11:28:50;1.45;;;1.20;;
16308;SDS011;8263;48.880;9.276;2022-07-01T11:31:26;1.52;;;1.40;;
16308;SDS011;8263;48.880;9.276;2022-07-01T11:33:52;1.30;;;1.20;;
16308;SDS011;8263;48.880;9.276;2022-07-01T11:36:19;1.48;;;1.38;;
16308;SDS011;8263;48.880;9.276;2022-07-01T11:39:04;1.95;;;1.25;;
16308;SDS011;8263;48.880;9.276;2022-07-01T11:41:51;1.48;;;1.35;;
16308;SDS011;8263;48.880;9.276;2022-07-01T11:44:27;2.75;;;1.85;;
16308;SDS011;8263;48.880;9.276;2022-07-01T11:46:53;3.72;;;1.33;;
16308;SDS011;8263;48.880;9.276;2022-07-01T11:49:20;1.52;;;1.23;;
16308;SDS011;8263;48.880;9.276;2022-07-01T11:51:53;1.33;;;1.20;;
16308;SDS011;8263;48.880;9.276;2022-07-01T11:54:21;1.77;;;1.30;;
16308;SDS011;8263;48.880;9.276;2022-07-01T11:56:48;1.30;;;1.20;;
16308;SDS011;8263;48.880;9.276;2022-07-01T11:59:14;1.20;;;1.10;;
16308;SDS011;8263;48.880;9.276;2022-07-01T12:01:41;1.88;;;1.10;;
16308;SDS011;8263;48.880;9.276;2022-07-01T12:04:09;2.47;;;1.40;;
16308;SDS011;8263;48.880;9.276;2022-07-01T12:06:36;1.30;;;1.20;;
16308;SDS011;8263;48.880;9.276;2022-07-01T12:09:04;1.35;;;1.23;;
16308;SDS011;8263;48.880;9.276;2022-07-01T12:11:32;1.42;;;1.25;;
16308;SDS011;8263;48.880;9.276;2022-07-01T12:14:00;1.50;;;1.20;;
16308;SDS011;8263;48.880;9.276;2022-07-01T12:16:27;3.67;;;1.45;;
16308;SDS011;8263;48.880;9.276;2022-07-01T12:18:54;1.17;;;1.08;;
16308;SDS011;8263;48.880;9.276;2022-07-01T12:21:21;1.05;;;0.98;;
16308;SDS011;8263;48.880;9.276;2022-07-01T12:24:04;1.95;;;1.23;;
16308;SDS011;8263;48.880;9.276;2022-07-01T12:26:33;2.17;;;1.05;;
16308;SDS011;8263;48.880;9.276;2022-07-01T12:28:59;2.60;;;1.15;;
16308;SDS011;8263;48.880;9.276;2022-07-01T12:31:26;2.05;;;1.20;;
16308;SDS011;8263;48.880;9.276;2022-07-01T12:33:52;3.60;;;1.25;;
16308;SDS011;8263;48.880;9.276;2022-07-01T12:36:19;2.58;;;1.55;;
16308;SDS011;8263;48.880;9.276;2022-07-01T12:38:45;1.88;;;1.30;;
16308;SDS011;8263;48.880;9.276;2022-07-01T12:41:27;3.55;;;1.70;;
16308;SDS011;8263;48.880;9.276;2022-07-01T12:43:56;1.33;;;1.05;;
16308;SDS011;8263;48.880;9.276;2022-07-01T12:46:28;1.75;;;1.27;;
16308;SDS011;8263;48.880;9.276;2022-07-01T12:48:55;2.15;;;1.60;;
16308;SDS011;8263;48.880;9.276;2022-07-01T12:51:21;1.70;;;1.27;;
16308;SDS011;8263;48.880;9.276;2022-07-01T12:53:54;2.08;;;1.40;;
16308;SDS011;8263;48.880;9.276;2022-07-01T12:56:21;1.25;;;0.95;;
16308;SDS011;8263;48.880;9.276;2022-07-01T12:58:48;1.52;;;1.20;;
16308;SDS011;8263;48.880;9.276;2022-07-01T13:01:18;2.03;;;1.10;;
16308;SDS011;8263;48.880;9.276;2022-07-01T13:03:45;2.42;;;1.13;;
16308;SDS011;8263;48.880;9.276;2022-07-01T13:06:12;3.10;;;1.10;;
16308;SDS011;8263;48.880;9.276;2022-07-01T13:08:38;1.85;;;1.25;;
16308;SDS011;8263;48.880;9.276;2022-07-01T13:11:05;1.45;;;1.17;;
16308;SDS011;8263;48.880;9.276;2022-07-01T13:13:32;3.55;;;1.20;;
16308;SDS011;8263;48.880;9.276;2022-07-01T13:15:58;2.80;;;1.05;;
16308;SDS011;8263;48.880;9.276;2022-07-01T13:18:26;1.50;;;1.20;;
16308;SDS011;8263;48.880;9.276;2022-07-01T13:20:53;1.65;;;1.38;;
16308;SDS011;8263;48.880;9.276;2022-07-01T13:23:19;1.70;;;1.35;;
16308;SDS011;8263;48.880;9.276;2022-07-01T13:25:46;2.38;;;1.50;;
16308;SDS011;8263;48.880;9.276;2022-07-01T13:28:12;1.30;;;1.20;;
16308;SDS011;8263;48.880;9.276;2022-07-01T13:30:39;2.15;;;1.40;;
16308;SDS011;8263;48.880;9.276;2022-07-01T13:33:05;2.45;;;1.30;;
16308;SDS011;8263;48.880;9.276;2022-07-01T13:35:33;3.25;;;1.30;;
16308;SDS011;8263;48.880;9.276;2022-07-01T13:38:00;1.60;;;1.17;;
16308;SDS011;8263;48.880;9.276;2022-07-01T13:40:26;1.08;;;0.98;;
16308;SDS011;8263;48.880;9.276;2022-07-01T13:42:53;1.30;;;0.98;;
16308;SDS011;8263;48.880;9.276;2022-07-01T13:45:19;3.08;;;1.33;;
16308;SDS011;8263;48.880;9.276;2022-07-01T13:47:46;1.55;;;1.38;;
16308;SDS011;8263;48.880;9.276;2022-07-01T13:50:13;3.17;;;1.50;;
16308;SDS011;8263;48.880;9.276;2022-07-01T13:52:45;1.25;;;1.15;;
16308;SDS011;8263;48.880;9.276;2022-07-01T13:55:11;1.35;;;1.13;;
16308;SDS011;8263;48.880;9.276;2022-07-01T13:57:38;1.35;;;1.20;;
16308;SDS011;8263;48.880;9.276;2022-07-01T14:00:05;1.10;;;1.00;;
16308;SDS011;8263;48.880;9.276;2022-07-01T14:02:33;1.25;;;1.08;;
16308;SDS011;8263;48.880;9.276;2022-07-01T14:04:59;1.20;;;1.00;;
16308;SDS011;8263;48.880;9.276;2022-07-01T14:07:26;1.13;;;1.08;;
16308;SDS011;8263;48.880;9.276;2022-07-01T14:09:54;1.13;;;1.02;;
16308;SDS011;8263;48.880;9.276;2022-07-01T14:12:20;2.90;;;1.20;;
16308;SDS011;8263;48.880;9.276;2022-07-01T14:14:47;1.30;;;1.20;;
16308;SDS011;8263;48.880;9.276;2022-07-01T14:17:13;1.30;;;1.20;;
16308;SDS011;8263;48.880;9.276;2022-07-01T14:19:40;1.65;;;1.20;;
16308;SDS011;8263;48.880;9.276;2022-07-01T14:22:06;2.78;;;1.50;;
16308;SDS011;8263;48.880;9.276;2022-07-01T14:24:33;1.77;;;1.20;;
16308;SDS011;8263;48.880;9.276;2022-07-01T14:27:01;2.58;;;1.10;;
16308;SDS011;8263;48.880;9.276;2022-07-01T14:29:28;1.30;;;1.20;;
16308;SDS011;8263;48.880;9.276;2022-07-01T14:31:55;2.95;;;1.92;;
16308;SDS011;8263;48.880;9.276;2022-07-01T14:34:22;1.75;;;1.27;;
16308;SDS011;8263;48.880;9.276;2022-07-01T14:36:48;1.63;;;1.27;;
16308;SDS011;8263;48.880;9.276;2022-07-01T14:39:15;1.35;;;1.15;;
16308;SDS011;8263;48.880;9.276;2022-07-01T14:41:42;1.50;;;1.20;;
16308;SDS011;8263;48.880;9.276;2022-07-01T14:44:15;1.40;;;1.15;;
16308;SDS011;8263;48.880;9.276;2022-07-01T14:46:42;1.25;;;1.10;;
16308;SDS011;8263;48.880;9.276;2022-07-01T14:49:08;1.35;;;1.10;;
16308;SDS011;8263;48.880;9.276;2022-07-01T14:51:36;1.90;;;1.30;;
16308;SDS011;8263;48.880;9.276;2022-07-01T14:54:03;2.80;;;1.30;;
16308;SDS011;8263;48.880;9.276;2022-07-01T14:56:30;1.90;;;1.05;;
16308;SDS011;8263;48.880;9.276;2022-07-01T14:58:57;1.55;;;1.17;;
16308;SDS011;8263;48.880;9.276;2022-07-01T15:01:25;2.25;;;1.40;;
16308;SDS011;8263;48.880;9.276;2022-07-01T15:03:51;1.75;;;1.13;;
16308;SDS011;8263;48.880;9.276;2022-07-01T15:06:18;1.20;;;1.10;;
16308;SDS011;8263;48.880;9.276;2022-07-01T15:08:44;5.35;;;1.10;;
16308;SDS011;8263;48.880;9.276;2022-07-01T15:11:13;2.17;;;1.30;;
16308;SDS011;8263;48.880;9.276;2022-07-01T15:13:39;1.38;;;1.27;;
16308;SDS011;8263;48.880;9.276;2022-07-01T15:16:06;1.77;;;1.10;;